sensor_id;sensor_type;location;lat;lon;timestamp;P1;durP1;ratioP1;P2;durP2;ratioP2
77012;SDS011;67260;53.130;17.982;2023-04-24T00:00:57;17.30;;;9.30;;
77012;SDS011;67260;53.130;17.982;2023-04-24T00:03:25;13.10;;;8.60;;
77012;SDS011;67260;53.130;17.982;2023-04-24T00:05:51;14.10;;;9.60;;
77012;SDS011;67260;53.130;17.982;2023-04-24T00:08:17;16.70;;;9.60;;
77012;SDS011;67260;53.130;17.982;2023-04-24T00:10:44;14.50;;;8.80;;
77012;SDS011;67260;53.130;17.982;2023-04-24T00:13:10;14.10;;;9.20;;
77012;SDS011;67260;53.130;17.982;2023-04-24T00:15:36;14.40;;;9.20;;
77012;SDS011;67260;53.130;17.982;2023-04-24T00:18:02;17.70;;;9.50;;
77012;SDS011;67260;53.130;17.982;2023-04-24T00:20:28;14.60;;;9.10;;
77012;SDS011;67260;53.130;17.982;2023-04-24T00:22:59;16.60;;;9.90;;
77012;SDS011;67260;53.130;17.982;2023-04-24T00:25:24;15.60;;;8.90;;
77012;SDS011;67260;53.130;17.982;2023-04-24T00:27:50;14.50;;;8.50;;
77012;SDS011;67260;53.130;17.982;2023-04-24T00:30:16;14.60;;;8.80;;
77012;SDS011;67260;53.130;17.982;2023-04-24T00:32:43;14.60;;;8.50;;
77012;SDS011;67260;53.130;17.982;2023-04-24T00:35:10;16.30;;;9.90;;
77012;SDS011;67260;53.130;17.982;2023-04-24T00:37:37;14.70;;;9.60;;
77012;SDS011;67260;53.130;17.982;2023-04-24T00:40:03;16.00;;;9.50;;
77012;SDS011;67260;53.130;17.982;2023-04-24T00:42:30;15.80;;;9.60;;
77012;SDS011;67260;53.130;17.982;2023-04-24T00:44:56;15.40;;;9.30;;
77012;SDS011;67260;53.130;17.982;2023-04-24T00:47:23;16.00;;;10.20;;
77012;SDS011;67260;53.130;17.982;2023-04-24T00:49:51;14.80;;;9.50;;
77012;SDS011;67260;53.130;17.982;2023-04-24T00:52:16;13.60;;;8.90;;
77012;SDS011;67260;53.130;17.982;2023-04-24T00:54:43;14.90;;;9.30;;
77012;SDS011;67260;53.130;17.982;2023-04-24T00:57:13;13.90;;;9.80;;
77012;SDS011;67260;53.130;17.982;2023-04-24T00:59:43;14.40;;;9.50;;
77012;SDS011;67260;53.130;17.982;2023-04-24T01:02:10;15.70;;;9.10;;
77012;SDS011;67260;53.130;17.982;2023-04-24T01:04:37;13.40;;;9.10;;
77012;SDS011;67260;53.130;17.982;2023-04-24T01:07:04;12.60;;;9.20;;
77012;SDS011;67260;53.130;17.982;2023-04-24T01:09:36;13.60;;;9.70;;
77012;SDS011;67260;53.130;17.982;2023-04-24T01:12:06;14.10;;;9.70;;
77012;SDS011;67260;53.130;17.982;2023-04-24T01:14:33;14.80;;;10.10;;
77012;SDS011;67260;53.130;17.982;2023-04-24T01:16:59;15.80;;;10.40;;
77012;SDS011;67260;53.130;17.982;2023-04-24T01:19:27;16.20;;;10.60;;
77012;SDS011;67260;53.130;17.982;2023-04-24T01:21:53;16.90;;;10.40;;
77012;SDS011;67260;53.130;17.982;2023-04-24T01:24:24;15.50;;;9.80;;
77012;SDS011;67260;53.130;17.982;2023-04-24T01:26:50;17.60;;;10.90;;
77012;SDS011;67260;53.130;17.982;2023-04-24T01:29:18;16.10;;;10.20;;
77012;SDS011;67260;53.130;17.982;2023-04-24T01:31:45;16.20;;;9.90;;
77012;SDS011;67260;53.130;17.982;2023-04-24T01:34:12;17.20;;;11.60;;
77012;SDS011;67260;53.130;17.982;2023-04-24T01:36:40;15.60;;;10.80;;
77012;SDS011;67260;53.130;17.982;2023-04-24T01:39:07;18.80;;;10.50;;
77012;SDS011;67260;53.130;17.982;2023-04-24T01:41:33;18.30;;;10.60;;
77012;SDS011;67260;53.130;17.982;2023-04-24T01:44:00;14.90;;;9.90;;
77012;SDS011;67260;53.130;17.982;2023-04-24T01:46:27;17.60;;;11.00;;
77012;SDS011;67260;53.130;17.982;2023-04-24T01:48:53;17.20;;;10.50;;
77012;SDS011;67260;53.130;17.982;2023-04-24T01:51:20;15.80;;;10.20;;
77012;SDS011;67260;53.130;17.982;2023-04-24T01:53:50;17.70;;;10.90;;
77012;SDS011;67260;53.130;17.982;2023-04-24T01:56:16;14.30;;;10.40;;
77012;SDS011;67260;53.130;17.982;2023-04-24T01:58:43;16.40;;;10.50;;
77012;SDS011;67260;53.130;17.982;2023-04-24T02:01:14;17.50;;;11.30;;
77012;SDS011;67260;53.130;17.982;2023-04-24T02:03:44;17.00;;;10.60;;
77012;SDS011;67260;53.130;17.982;2023-04-24T02:06:10;18.10;;;12.30;;
77012;SDS011;67260;53.130;17.982;2023-04-24T02:08:36;18.80;;;11.20;;
77012;SDS011;67260;53.130;17.982;2023-04-24T02:13:32;16.90;;;11.00;;
77012;SDS011;67260;53.130;17.982;2023-04-24T02:15:58;18.60;;;11.00;;
77012;SDS011;67260;53.130;17.982;2023-04-24T02:20:50;18.50;;;12.60;;
77012;SDS011;67260;53.130;17.982;2023-04-24T02:23:16;18.10;;;12.90;;
77012;SDS011;67260;53.130;17.982;2023-04-24T02:25:42;19.20;;;12.20;;
77012;SDS011;67260;53.130;17.982;2023-04-24T02:28:08;20.60;;;11.80;;
77012;SDS011;67260;53.130;17.982;2023-04-24T02:30:34;16.10;;;11.80;;
77012;SDS011;67260;53.130;17.982;2023-04-24T02:33:01;17.60;;;12.10;;
77012;SDS011;67260;53.130;17.982;2023-04-24T02:35:28;19.50;;;11.60;;
77012;SDS011;67260;53.130;17.982;2023-04-24T02:37:54;18.10;;;12.00;;
77012;SDS011;67260;53.130;17.982;2023-04-24T02:40:20;17.10;;;11.50;;
77012;SDS011;67260;53.130;17.982;2023-04-24T02:42:48;20.70;;;12.40;;
77012;SDS011;67260;53.130;17.982;2023-04-24T02:45:14;17.90;;;11.20;;
77012;SDS011;67260;53.130;17.982;2023-04-24T02:47:40;17.30;;;11.70;;
77012;SDS011;67260;53.130;17.982;2023-04-24T02:50:07;17.70;;;11.90;;
77012;SDS011;67260;53.130;17.982;2023-04-24T02:52:34;19.70;;;12.10;;
77012;SDS011;67260;53.130;17.982;2023-04-24T02:55:00;16.90;;;11.90;;
77012;SDS011;67260;53.130;17.982;2023-04-24T02:57:26;17.60;;;11.30;;
77012;SDS011;67260;53.130;17.982;2023-04-24T02:59:52;16.70;;;12.10;;
77012;SDS011;67260;53.130;17.982;2023-04-24T03:02:19;21.60;;;14.60;;
77012;SDS011;67260;53.130;17.982;2023-04-24T03:04:46;33.00;;;21.30;;
77012;SDS011;67260;53.130;17.982;2023-04-24T03:07:16;73.50;;;50.10;;
77012;SDS011;67260;53.130;17.982;2023-04-24T03:09:42;50.50;;;34.50;;
77012;SDS011;67260;53.130;17.982;2023-04-24T03:12:08;31.00;;;18.50;;
77012;SDS011;67260;53.130;17.982;2023-04-24T03:14:34;18.80;;;12.10;;
77012;SDS011;67260;53.130;17.982;2023-04-24T03:17:00;17.90;;;12.40;;
77012;SDS011;67260;53.130;17.982;2023-04-24T03:19:27;20.00;;;12.10;;
77012;SDS011;67260;53.130;17.982;2023-04-24T03:21:59;17.20;;;12.00;;
77012;SDS011;67260;53.130;17.982;2023-04-24T03:26:57;19.50;;;11.70;;
77012;SDS011;67260;53.130;17.982;2023-04-24T03:29:42;19.00;;;11.60;;
77012;SDS011;67260;53.130;17.982;2023-04-24T03:32:08;16.90;;;11.20;;
77012;SDS011;67260;53.130;17.982;2023-04-24T03:34:36;18.10;;;11.00;;
77012;SDS011;67260;53.130;17.982;2023-04-24T03:37:02;16.10;;;10.80;;
77012;SDS011;67260;53.130;17.982;2023-04-24T03:39:29;16.40;;;11.30;;
77012;SDS011;67260;53.130;17.982;2023-04-24T03:41:56;21.70;;;11.80;;
77012;SDS011;67260;53.130;17.982;2023-04-24T03:46:55;19.40;;;10.30;;
77012;SDS011;67260;53.130;17.982;2023-04-24T03:49:22;17.90;;;11.90;;
77012;SDS011;67260;53.130;17.982;2023-04-24T03:51:48;18.10;;;11.30;;
77012;SDS011;67260;53.130;17.982;2023-04-24T03:54:20;18.10;;;10.70;;
77012;SDS011;67260;53.130;17.982;2023-04-24T03:56:46;15.80;;;11.00;;
77012;SDS011;67260;53.130;17.982;2023-04-24T03:59:15;19.30;;;10.60;;
77012;SDS011;67260;53.130;17.982;2023-04-24T04:01:44;15.40;;;11.20;;
77012;SDS011;67260;53.130;17.982;2023-04-24T04:04:13;18.00;;;10.60;;
77012;SDS011;67260;53.130;17.982;2023-04-24T04:06:40;16.30;;;10.50;;
77012;SDS011;67260;53.130;17.982;2023-04-24T04:09:07;15.10;;;10.60;;
77012;SDS011;67260;53.130;17.982;2023-04-24T04:11:35;17.30;;;10.40;;
77012;SDS011;67260;53.130;17.982;2023-04-24T04:14:01;15.80;;;10.10;;
77012;SDS011;67260;53.130;17.982;2023-04-24T04:16:27;17.00;;;11.00;;
77012;SDS011;67260;53.130;17.982;2023-04-24T04:18:58;15.50;;;9.80;;
77012;SDS011;67260;53.130;17.982;2023-04-24T04:21:27;18.00;;;10.80;;
77012;SDS011;67260;53.130;17.982;2023-04-24T04:23:57;17.30;;;11.20;;
77012;SDS011;67260;53.130;17.982;2023-04-24T04:26:30;17.10;;;11.30;;
77012;SDS011;67260;53.130;17.982;2023-04-24T04:29:05;18.30;;;11.70;;
77012;SDS011;67260;53.130;17.982;2023-04-24T04:31:34;18.40;;;11.50;;
77012;SDS011;67260;53.130;17.982;2023-04-24T04:34:05;16.30;;;10.70;;
77012;SDS011;67260;53.130;17.982;2023-04-24T04:36:34;18.60;;;11.10;;
77012;SDS011;67260;53.130;17.982;2023-04-24T04:39:11;17.80;;;11.50;;
77012;SDS011;67260;53.130;17.982;2023-04-24T04:41:50;16.60;;;11.20;;
77012;SDS011;67260;53.130;17.982;2023-04-24T04:44:16;16.90;;;11.30;;
77012;SDS011;67260;53.130;17.982;2023-04-24T04:46:43;18.00;;;11.00;;
77012;SDS011;67260;53.130;17.982;2023-04-24T04:49:17;18.30;;;11.90;;
77012;SDS011;67260;53.130;17.982;2023-04-24T04:51:44;18.00;;;12.60;;
77012;SDS011;67260;53.130;17.982;2023-04-24T04:56:37;18.70;;;10.90;;
77012;SDS011;67260;53.130;17.982;2023-04-24T04:59:04;17.30;;;10.20;;
77012;SDS011;67260;53.130;17.982;2023-04-24T05:01:35;15.60;;;10.50;;
77012;SDS011;67260;53.130;17.982;2023-04-24T05:04:02;19.60;;;9.80;;
77012;SDS011;67260;53.130;17.982;2023-04-24T05:06:29;13.60;;;9.50;;
77012;SDS011;67260;53.130;17.982;2023-04-24T05:09:00;15.30;;;9.70;;
77012;SDS011;67260;53.130;17.982;2023-04-24T05:11:37;14.70;;;10.30;;
77012;SDS011;67260;53.130;17.982;2023-04-24T05:14:03;16.40;;;10.40;;
77012;SDS011;67260;53.130;17.982;2023-04-24T05:16:36;17.00;;;10.20;;
77012;SDS011;67260;53.130;17.982;2023-04-24T05:19:04;16.80;;;11.00;;
77012;SDS011;67260;53.130;17.982;2023-04-24T05:21:35;16.60;;;10.60;;
77012;SDS011;67260;53.130;17.982;2023-04-24T05:26:50;17.00;;;11.50;;
77012;SDS011;67260;53.130;17.982;2023-04-24T05:29:20;16.80;;;12.00;;
77012;SDS011;67260;53.130;17.982;2023-04-24T05:31:47;17.30;;;11.20;;
77012;SDS011;67260;53.130;17.982;2023-04-24T05:34:14;17.50;;;11.30;;
77012;SDS011;67260;53.130;17.982;2023-04-24T05:36:42;18.80;;;11.00;;
77012;SDS011;67260;53.130;17.982;2023-04-24T05:39:08;15.30;;;10.90;;
77012;SDS011;67260;53.130;17.982;2023-04-24T05:44:00;15.10;;;10.70;;
77012;SDS011;67260;53.130;17.982;2023-04-24T05:48:53;16.20;;;10.90;;
77012;SDS011;67260;53.130;17.982;2023-04-24T05:51:20;15.50;;;10.70;;
77012;SDS011;67260;53.130;17.982;2023-04-24T05:53:46;16.70;;;11.20;;
77012;SDS011;67260;53.130;17.982;2023-04-24T05:56:12;15.50;;;11.30;;
77012;SDS011;67260;53.130;17.982;2023-04-24T05:58:38;15.90;;;10.50;;
77012;SDS011;67260;53.130;17.982;2023-04-24T06:01:05;16.20;;;10.90;;
77012;SDS011;67260;53.130;17.982;2023-04-24T06:03:32;17.00;;;11.90;;
77012;SDS011;67260;53.130;17.982;2023-04-24T06:05:58;19.30;;;11.40;;
77012;SDS011;67260;53.130;17.982;2023-04-24T06:08:25;21.90;;;11.80;;
77012;SDS011;67260;53.130;17.982;2023-04-24T06:10:52;21.30;;;12.70;;
77012;SDS011;67260;53.130;17.982;2023-04-24T06:13:19;19.20;;;12.50;;
77012;SDS011;67260;53.130;17.982;2023-04-24T06:16:01;18.50;;;11.40;;
77012;SDS011;67260;53.130;17.982;2023-04-24T06:18:33;16.50;;;11.90;;
77012;SDS011;67260;53.130;17.982;2023-04-24T06:21:00;14.80;;;10.30;;
77012;SDS011;67260;53.130;17.982;2023-04-24T06:23:26;14.70;;;10.40;;
77012;SDS011;67260;53.130;17.982;2023-04-24T06:25:53;15.20;;;11.00;;
77012;SDS011;67260;53.130;17.982;2023-04-24T06:28:19;14.40;;;10.10;;
77012;SDS011;67260;53.130;17.982;2023-04-24T06:33:11;16.00;;;10.70;;
77012;SDS011;67260;53.130;17.982;2023-04-24T06:35:37;13.20;;;9.90;;
77012;SDS011;67260;53.130;17.982;2023-04-24T06:38:06;16.10;;;9.80;;
77012;SDS011;67260;53.130;17.982;2023-04-24T06:42:59;14.60;;;9.50;;
77012;SDS011;67260;53.130;17.982;2023-04-24T06:45:30;13.10;;;9.40;;
77012;SDS011;67260;53.130;17.982;2023-04-24T06:47:56;15.10;;;10.30;;
77012;SDS011;67260;53.130;17.982;2023-04-24T06:50:22;17.00;;;9.70;;
77012;SDS011;67260;53.130;17.982;2023-04-24T06:52:48;12.10;;;8.70;;
77012;SDS011;67260;53.130;17.982;2023-04-24T06:55:15;14.40;;;9.70;;
77012;SDS011;67260;53.130;17.982;2023-04-24T06:57:59;14.60;;;9.00;;
77012;SDS011;67260;53.130;17.982;2023-04-24T07:00:30;13.30;;;9.30;;
77012;SDS011;67260;53.130;17.982;2023-04-24T07:02:56;11.30;;;8.00;;
77012;SDS011;67260;53.130;17.982;2023-04-24T07:05:23;15.60;;;9.30;;
77012;SDS011;67260;53.130;17.982;2023-04-24T07:07:55;14.30;;;8.50;;
77012;SDS011;67260;53.130;17.982;2023-04-24T07:11:05;12.30;;;8.50;;
77012;SDS011;67260;53.130;17.982;2023-04-24T07:16:01;12.00;;;7.70;;
77012;SDS011;67260;53.130;17.982;2023-04-24T07:18:33;11.10;;;7.40;;
77012;SDS011;67260;53.130;17.982;2023-04-24T07:21:05;10.80;;;7.50;;
77012;SDS011;67260;53.130;17.982;2023-04-24T07:23:33;14.60;;;8.50;;
77012;SDS011;67260;53.130;17.982;2023-04-24T07:26:04;13.40;;;7.60;;
77012;SDS011;67260;53.130;17.982;2023-04-24T07:28:31;11.60;;;7.40;;
77012;SDS011;67260;53.130;17.982;2023-04-24T07:30:57;11.90;;;7.40;;
77012;SDS011;67260;53.130;17.982;2023-04-24T07:33:25;14.70;;;7.40;;
77012;SDS011;67260;53.130;17.982;2023-04-24T07:35:54;12.50;;;7.10;;
77012;SDS011;67260;53.130;17.982;2023-04-24T07:39:11;13.90;;;7.50;;
77012;SDS011;67260;53.130;17.982;2023-04-24T07:41:52;12.30;;;7.40;;
77012;SDS011;67260;53.130;17.982;2023-04-24T07:44:34;10.90;;;7.50;;
77012;SDS011;67260;53.130;17.982;2023-04-24T07:47:07;12.70;;;7.80;;
77012;SDS011;67260;53.130;17.982;2023-04-24T07:49:42;13.90;;;8.40;;
77012;SDS011;67260;53.130;17.982;2023-04-24T07:52:23;11.90;;;7.60;;
77012;SDS011;67260;53.130;17.982;2023-04-24T07:54:49;11.20;;;7.40;;
77012;SDS011;67260;53.130;17.982;2023-04-24T07:57:16;9.80;;;7.10;;
77012;SDS011;67260;53.130;17.982;2023-04-24T07:59:43;10.60;;;7.60;;
77012;SDS011;67260;53.130;17.982;2023-04-24T08:02:13;9.70;;;6.70;;
77012;SDS011;67260;53.130;17.982;2023-04-24T08:05:00;11.80;;;6.90;;
77012;SDS011;67260;53.130;17.982;2023-04-24T08:07:29;9.70;;;6.30;;
77012;SDS011;67260;53.130;17.982;2023-04-24T08:10:06;11.70;;;6.90;;
77012;SDS011;67260;53.130;17.982;2023-04-24T08:12:34;9.30;;;5.70;;
77012;SDS011;67260;53.130;17.982;2023-04-24T08:17:29;9.90;;;5.60;;
77012;SDS011;67260;53.130;17.982;2023-04-24T08:19:55;8.80;;;5.50;;
77012;SDS011;67260;53.130;17.982;2023-04-24T08:22:27;8.50;;;5.30;;
77012;SDS011;67260;53.130;17.982;2023-04-24T08:24:54;9.60;;;5.50;;
77012;SDS011;67260;53.130;17.982;2023-04-24T08:27:23;8.50;;;5.40;;
77012;SDS011;67260;53.130;17.982;2023-04-24T08:29:49;7.80;;;5.10;;
77012;SDS011;67260;53.130;17.982;2023-04-24T08:32:16;9.50;;;5.60;;
77012;SDS011;67260;53.130;17.982;2023-04-24T08:34:43;9.30;;;4.90;;
77012;SDS011;67260;53.130;17.982;2023-04-24T08:37:09;10.70;;;6.50;;
77012;SDS011;67260;53.130;17.982;2023-04-24T08:39:40;9.50;;;5.50;;
77012;SDS011;67260;53.130;17.982;2023-04-24T08:42:07;8.60;;;5.40;;
77012;SDS011;67260;53.130;17.982;2023-04-24T08:44:35;9.60;;;5.70;;
77012;SDS011;67260;53.130;17.982;2023-04-24T08:47:02;8.70;;;5.10;;
77012;SDS011;67260;53.130;17.982;2023-04-24T08:49:29;8.90;;;5.60;;
77012;SDS011;67260;53.130;17.982;2023-04-24T08:51:56;8.80;;;5.60;;
77012;SDS011;67260;53.130;17.982;2023-04-24T08:54:25;7.60;;;5.10;;
77012;SDS011;67260;53.130;17.982;2023-04-24T08:56:58;8.00;;;5.30;;
77012;SDS011;67260;53.130;17.982;2023-04-24T08:59:32;8.70;;;5.30;;
77012;SDS011;67260;53.130;17.982;2023-04-24T09:02:05;9.30;;;5.60;;
77012;SDS011;67260;53.130;17.982;2023-04-24T09:08:07;11.70;;;6.20;;
77012;SDS011;67260;53.130;17.982;2023-04-24T09:10:37;7.90;;;5.20;;
77012;SDS011;67260;53.130;17.982;2023-04-24T09:13:06;9.30;;;5.60;;
77012;SDS011;67260;53.130;17.982;2023-04-24T09:15:34;9.40;;;5.80;;
77012;SDS011;67260;53.130;17.982;2023-04-24T09:18:02;10.10;;;5.70;;
77012;SDS011;67260;53.130;17.982;2023-04-24T09:20:29;8.40;;;5.30;;
77012;SDS011;67260;53.130;17.982;2023-04-24T09:22:56;11.40;;;5.60;;
77012;SDS011;67260;53.130;17.982;2023-04-24T09:25:33;9.10;;;5.80;;
77012;SDS011;67260;53.130;17.982;2023-04-24T09:28:02;11.20;;;5.70;;
77012;SDS011;67260;53.130;17.982;2023-04-24T09:30:37;7.60;;;5.40;;
77012;SDS011;67260;53.130;17.982;2023-04-24T09:35:42;9.00;;;5.40;;
77012;SDS011;67260;53.130;17.982;2023-04-24T09:38:16;10.90;;;5.60;;
77012;SDS011;67260;53.130;17.982;2023-04-24T09:40:43;10.20;;;5.50;;
77012;SDS011;67260;53.130;17.982;2023-04-24T09:45:38;9.70;;;5.20;;
77012;SDS011;67260;53.130;17.982;2023-04-24T09:48:08;10.10;;;5.50;;
77012;SDS011;67260;53.130;17.982;2023-04-24T09:50:35;7.30;;;5.30;;
77012;SDS011;67260;53.130;17.982;2023-04-24T09:53:05;8.80;;;5.00;;
77012;SDS011;67260;53.130;17.982;2023-04-24T09:58:10;10.60;;;5.50;;
77012;SDS011;67260;53.130;17.982;2023-04-24T10:00:37;8.30;;;5.70;;
77012;SDS011;67260;53.130;17.982;2023-04-24T10:03:04;7.50;;;5.30;;
77012;SDS011;67260;53.130;17.982;2023-04-24T10:05:35;7.30;;;4.60;;
77012;SDS011;67260;53.130;17.982;2023-04-24T10:08:06;7.70;;;4.90;;
77012;SDS011;67260;53.130;17.982;2023-04-24T10:10:40;10.60;;;5.30;;
77012;SDS011;67260;53.130;17.982;2023-04-24T10:13:11;11.30;;;5.30;;
77012;SDS011;67260;53.130;17.982;2023-04-24T10:15:38;9.00;;;5.50;;
77012;SDS011;67260;53.130;17.982;2023-04-24T10:18:06;7.90;;;6.00;;
77012;SDS011;67260;53.130;17.982;2023-04-24T10:20:40;9.20;;;5.60;;
77012;SDS011;67260;53.130;17.982;2023-04-24T10:23:07;9.90;;;5.50;;
77012;SDS011;67260;53.130;17.982;2023-04-24T10:25:34;7.90;;;5.20;;
77012;SDS011;67260;53.130;17.982;2023-04-24T10:28:01;9.10;;;5.70;;
77012;SDS011;67260;53.130;17.982;2023-04-24T10:30:29;10.00;;;5.60;;
77012;SDS011;67260;53.130;17.982;2023-04-24T10:33:04;12.00;;;5.40;;
77012;SDS011;67260;53.130;17.982;2023-04-24T10:35:33;9.70;;;4.90;;
77012;SDS011;67260;53.130;17.982;2023-04-24T10:38:06;7.90;;;5.00;;
77012;SDS011;67260;53.130;17.982;2023-04-24T10:40:36;11.40;;;5.10;;
77012;SDS011;67260;53.130;17.982;2023-04-24T10:43:06;9.10;;;5.10;;
77012;SDS011;67260;53.130;17.982;2023-04-24T10:45:37;8.70;;;5.30;;
77012;SDS011;67260;53.130;17.982;2023-04-24T10:48:06;7.30;;;5.30;;
77012;SDS011;67260;53.130;17.982;2023-04-24T10:50:43;8.00;;;5.30;;
77012;SDS011;67260;53.130;17.982;2023-04-24T10:53:12;7.00;;;4.60;;
77012;SDS011;67260;53.130;17.982;2023-04-24T10:58:08;8.50;;;4.40;;
77012;SDS011;67260;53.130;17.982;2023-04-24T11:00:38;6.40;;;4.50;;
77012;SDS011;67260;53.130;17.982;2023-04-24T11:03:06;6.80;;;4.40;;
77012;SDS011;67260;53.130;17.982;2023-04-24T11:05:49;12.10;;;5.20;;
77012;SDS011;67260;53.130;17.982;2023-04-24T11:08:31;8.30;;;4.60;;
77012;SDS011;67260;53.130;17.982;2023-04-24T11:10:59;7.60;;;4.90;;
77012;SDS011;67260;53.130;17.982;2023-04-24T11:14:00;7.50;;;5.10;;
77012;SDS011;67260;53.130;17.982;2023-04-24T11:16:44;7.80;;;5.60;;
77012;SDS011;67260;53.130;17.982;2023-04-24T11:19:18;7.10;;;5.60;;
77012;SDS011;67260;53.130;17.982;2023-04-24T11:22:05;10.70;;;6.00;;
77012;SDS011;67260;53.130;17.982;2023-04-24T11:27:16;13.70;;;7.30;;
77012;SDS011;67260;53.130;17.982;2023-04-24T11:35:15;10.80;;;7.50;;
77012;SDS011;67260;53.130;17.982;2023-04-24T11:37:52;14.90;;;8.40;;
77012;SDS011;67260;53.130;17.982;2023-04-24T11:40:20;11.60;;;7.50;;
77012;SDS011;67260;53.130;17.982;2023-04-24T11:42:51;12.00;;;7.60;;
77012;SDS011;67260;53.130;17.982;2023-04-24T11:47:51;9.60;;;6.00;;
77012;SDS011;67260;53.130;17.982;2023-04-24T11:50:24;11.30;;;7.20;;
77012;SDS011;67260;53.130;17.982;2023-04-24T11:52:52;8.30;;;6.70;;
77012;SDS011;67260;53.130;17.982;2023-04-24T11:57:46;9.60;;;6.10;;
77012;SDS011;67260;53.130;17.982;2023-04-24T12:00:16;11.70;;;5.60;;
77012;SDS011;67260;53.130;17.982;2023-04-24T12:07:49;10.40;;;6.30;;
77012;SDS011;67260;53.130;17.982;2023-04-24T12:10:22;7.40;;;5.30;;
77012;SDS011;67260;53.130;17.982;2023-04-24T12:12:50;8.70;;;4.80;;
77012;SDS011;67260;53.130;17.982;2023-04-24T12:15:23;9.00;;;4.90;;
77012;SDS011;67260;53.130;17.982;2023-04-24T12:17:51;8.40;;;4.80;;
77012;SDS011;67260;53.130;17.982;2023-04-24T12:20:27;8.70;;;5.20;;
77012;SDS011;67260;53.130;17.982;2023-04-24T12:22:55;10.80;;;4.70;;
77012;SDS011;67260;53.130;17.982;2023-04-24T12:25:23;7.30;;;5.20;;
77012;SDS011;67260;53.130;17.982;2023-04-24T12:27:55;7.70;;;5.40;;
77012;SDS011;67260;53.130;17.982;2023-04-24T12:30:45;7.50;;;5.40;;
77012;SDS011;67260;53.130;17.982;2023-04-24T12:33:20;7.20;;;5.20;;
77012;SDS011;67260;53.130;17.982;2023-04-24T12:35:48;9.60;;;5.40;;
77012;SDS011;67260;53.130;17.982;2023-04-24T12:38:22;7.80;;;5.30;;
77012;SDS011;67260;53.130;17.982;2023-04-24T12:41:05;8.40;;;5.50;;
77012;SDS011;67260;53.130;17.982;2023-04-24T12:43:35;8.90;;;6.30;;
77012;SDS011;67260;53.130;17.982;2023-04-24T12:46:02;9.40;;;6.10;;
77012;SDS011;67260;53.130;17.982;2023-04-24T12:48:29;8.50;;;5.80;;
77012;SDS011;67260;53.130;17.982;2023-04-24T12:50:59;8.50;;;6.10;;
77012;SDS011;67260;53.130;17.982;2023-04-24T12:53:28;10.00;;;6.80;;
77012;SDS011;67260;53.130;17.982;2023-04-24T12:55:57;11.50;;;8.20;;
77012;SDS011;67260;53.130;17.982;2023-04-24T12:58:23;10.00;;;7.90;;
77012;SDS011;67260;53.130;17.982;2023-04-24T13:00:50;12.40;;;8.30;;
77012;SDS011;67260;53.130;17.982;2023-04-24T13:03:17;9.60;;;7.20;;
77012;SDS011;67260;53.130;17.982;2023-04-24T13:05:43;11.80;;;7.80;;
77012;SDS011;67260;53.130;17.982;2023-04-24T13:08:09;9.80;;;7.20;;
77012;SDS011;67260;53.130;17.982;2023-04-24T13:10:35;8.40;;;6.30;;
77012;SDS011;67260;53.130;17.982;2023-04-24T13:13:02;10.60;;;6.20;;
77012;SDS011;67260;53.130;17.982;2023-04-24T13:15:30;9.60;;;7.20;;
77012;SDS011;67260;53.130;17.982;2023-04-24T13:17:57;11.10;;;6.80;;
77012;SDS011;67260;53.130;17.982;2023-04-24T13:20:23;7.90;;;6.00;;
77012;SDS011;67260;53.130;17.982;2023-04-24T13:22:49;8.60;;;6.20;;
77012;SDS011;67260;53.130;17.982;2023-04-24T13:25:15;9.00;;;5.70;;
77012;SDS011;67260;53.130;17.982;2023-04-24T13:27:42;8.90;;;5.70;;
77012;SDS011;67260;53.130;17.982;2023-04-24T13:32:34;8.40;;;6.20;;
77012;SDS011;67260;53.130;17.982;2023-04-24T13:35:01;8.20;;;5.90;;
77012;SDS011;67260;53.130;17.982;2023-04-24T13:37:28;8.10;;;6.00;;
77012;SDS011;67260;53.130;17.982;2023-04-24T13:42:20;8.00;;;5.90;;
77012;SDS011;67260;53.130;17.982;2023-04-24T13:44:50;7.20;;;5.50;;
77012;SDS011;67260;53.130;17.982;2023-04-24T13:47:17;6.10;;;4.50;;
77012;SDS011;67260;53.130;17.982;2023-04-24T13:49:47;5.90;;;4.30;;
77012;SDS011;67260;53.130;17.982;2023-04-24T13:52:15;6.30;;;4.00;;
77012;SDS011;67260;53.130;17.982;2023-04-24T13:54:42;8.70;;;4.50;;
77012;SDS011;67260;53.130;17.982;2023-04-24T13:57:08;6.90;;;4.20;;
77012;SDS011;67260;53.130;17.982;2023-04-24T13:59:37;7.10;;;4.80;;
77012;SDS011;67260;53.130;17.982;2023-04-24T14:02:04;7.60;;;5.20;;
77012;SDS011;67260;53.130;17.982;2023-04-24T14:04:30;8.10;;;5.30;;
77012;SDS011;67260;53.130;17.982;2023-04-24T14:06:57;7.10;;;5.70;;
77012;SDS011;67260;53.130;17.982;2023-04-24T14:09:22;8.00;;;5.90;;
77012;SDS011;67260;53.130;17.982;2023-04-24T14:11:48;9.70;;;6.20;;
77012;SDS011;67260;53.130;17.982;2023-04-24T14:14:14;9.20;;;7.10;;
77012;SDS011;67260;53.130;17.982;2023-04-24T14:16:40;7.90;;;5.70;;
77012;SDS011;67260;53.130;17.982;2023-04-24T14:21:33;8.80;;;5.90;;
77012;SDS011;67260;53.130;17.982;2023-04-24T14:23:59;8.60;;;6.50;;
77012;SDS011;67260;53.130;17.982;2023-04-24T14:26:29;7.40;;;5.70;;
77012;SDS011;67260;53.130;17.982;2023-04-24T14:28:56;7.40;;;4.90;;
77012;SDS011;67260;53.130;17.982;2023-04-24T14:31:24;7.10;;;5.10;;
77012;SDS011;67260;53.130;17.982;2023-04-24T14:36:16;11.30;;;5.90;;
77012;SDS011;67260;53.130;17.982;2023-04-24T14:38:42;6.70;;;4.60;;
77012;SDS011;67260;53.130;17.982;2023-04-24T14:43:42;6.30;;;3.90;;
77012;SDS011;67260;53.130;17.982;2023-04-24T14:46:08;6.10;;;3.80;;
77012;SDS011;67260;53.130;17.982;2023-04-24T14:53:30;6.50;;;5.00;;
77012;SDS011;67260;53.130;17.982;2023-04-24T14:58:23;6.40;;;4.20;;
77012;SDS011;67260;53.130;17.982;2023-04-24T15:00:50;6.50;;;4.20;;
77012;SDS011;67260;53.130;17.982;2023-04-24T15:03:18;6.50;;;4.30;;
77012;SDS011;67260;53.130;17.982;2023-04-24T15:05:44;6.80;;;4.00;;
77012;SDS011;67260;53.130;17.982;2023-04-24T15:10:36;6.50;;;3.30;;
77012;SDS011;67260;53.130;17.982;2023-04-24T15:13:03;5.20;;;3.60;;
77012;SDS011;67260;53.130;17.982;2023-04-24T15:15:29;5.40;;;3.30;;
77012;SDS011;67260;53.130;17.982;2023-04-24T15:17:55;6.10;;;3.90;;
77012;SDS011;67260;53.130;17.982;2023-04-24T15:22:47;6.20;;;3.90;;
77012;SDS011;67260;53.130;17.982;2023-04-24T15:25:14;6.40;;;3.50;;
77012;SDS011;67260;53.130;17.982;2023-04-24T15:27:44;5.20;;;3.20;;
77012;SDS011;67260;53.130;17.982;2023-04-24T15:30:12;5.50;;;2.80;;
77012;SDS011;67260;53.130;17.982;2023-04-24T15:32:40;3.50;;;2.20;;
77012;SDS011;67260;53.130;17.982;2023-04-24T15:35:06;3.70;;;2.10;;
77012;SDS011;67260;53.130;17.982;2023-04-24T15:37:32;4.70;;;2.40;;
77012;SDS011;67260;53.130;17.982;2023-04-24T15:39:59;6.00;;;3.60;;
77012;SDS011;67260;53.130;17.982;2023-04-24T15:42:30;4.60;;;2.50;;
77012;SDS011;67260;53.130;17.982;2023-04-24T15:45:00;5.00;;;2.60;;
77012;SDS011;67260;53.130;17.982;2023-04-24T15:47:27;4.10;;;2.70;;
77012;SDS011;67260;53.130;17.982;2023-04-24T15:49:55;4.70;;;2.70;;
77012;SDS011;67260;53.130;17.982;2023-04-24T15:52:27;3.80;;;2.60;;
77012;SDS011;67260;53.130;17.982;2023-04-24T15:54:55;4.60;;;2.40;;
77012;SDS011;67260;53.130;17.982;2023-04-24T15:57:21;4.70;;;2.40;;
77012;SDS011;67260;53.130;17.982;2023-04-24T16:02:13;6.10;;;2.60;;